createdAt,value
2022-09-06T00:02:24.615Z,14.50
2022-09-06T00:04:51.332Z,13.80
2022-09-06T00:07:18.113Z,13.70
2022-09-06T00:09:44.961Z,13.70
2022-09-06T00:12:11.653Z,13.80
2022-09-06T00:14:38.809Z,13.60
2022-09-06T00:17:05.592Z,13.60
2022-09-06T00:19:32.349Z,13.50
2022-09-06T00:21:59.185Z,13.50
2022-09-06T00:24:26.605Z,13.80
2022-09-06T00:26:53.339Z,14.40
2022-09-06T00:29:20.135Z,13.40
2022-09-06T00:31:47.055Z,13.30
2022-09-06T00:34:13.765Z,13.30
2022-09-06T00:36:40.470Z,13.90
2022-09-06T00:39:07.209Z,13.30
2022-09-06T00:41:34.007Z,13.20
2022-09-06T00:44:00.966Z,14.00
2022-09-06T00:46:30.200Z,13.20
2022-09-06T00:49:01.818Z,13.10
2022-09-06T00:51:30.982Z,13.10
2022-09-06T00:53:58.741Z,13.00
2022-09-06T00:56:27.467Z,13.00
2022-09-06T00:58:55.463Z,13.00
2022-09-06T01:01:22.273Z,12.90
2022-09-06T01:03:49.214Z,13.50
2022-09-06T01:06:22.035Z,13.10
2022-09-06T01:09:23.769Z,12.90
2022-09-06T01:11:50.439Z,12.80
2022-09-06T01:14:17.112Z,12.80
2022-09-06T01:17:03.493Z,12.80
2022-09-06T01:19:54.117Z,12.70
2022-09-06T01:22:45.641Z,12.70
2022-09-06T01:25:33.921Z,12.70
2022-09-06T01:28:19.219Z,12.60
2022-09-06T01:30:59.448Z,12.60
2022-09-06T01:33:46.413Z,13.40
2022-09-06T01:36:18.549Z,13.00
2022-09-06T01:38:45.359Z,12.90
2022-09-06T01:41:12.229Z,12.50
2022-09-06T01:43:44.001Z,12.50
2022-09-06T01:46:20.549Z,12.50
2022-09-06T01:48:50.238Z,12.50
2022-09-06T01:51:41.554Z,12.80
2022-09-06T01:54:36.235Z,12.40
2022-09-06T01:57:28.898Z,12.40
2022-09-06T02:00:06.764Z,12.40
2022-09-06T02:02:39.872Z,12.30
2022-09-06T02:05:18.582Z,12.30
2022-09-06T02:07:48.511Z,12.80
2022-09-06T02:10:27.268Z,13.40
2022-09-06T02:12:59.791Z,12.30
2022-09-06T02:15:34.569Z,13.20
2022-09-06T02:18:06.586Z,12.20
2022-09-06T02:20:36.369Z,12.20
2022-09-06T02:23:06.351Z,12.20
2022-09-06T02:25:40.077Z,13.20
2022-09-06T02:28:08.786Z,13.90
2022-09-06T02:30:46.021Z,12.20
2022-09-06T02:33:26.447Z,12.10
2022-09-06T02:35:55.228Z,12.00
2022-09-06T02:38:24.069Z,12.00
2022-09-06T02:40:53.681Z,12.20
2022-09-06T02:43:21.413Z,11.90
2022-09-06T02:45:48.250Z,11.90
2022-09-06T02:48:15.035Z,11.90
2022-09-06T02:50:41.828Z,11.90
2022-09-06T02:53:13.841Z,11.90
2022-09-06T02:55:41.393Z,11.90
2022-09-06T02:58:10.924Z,11.90
2022-09-06T03:00:38.252Z,11.90
2022-09-06T03:03:05.384Z,12.30
2022-09-06T03:05:32.135Z,11.80
2022-09-06T03:07:58.942Z,11.80
2022-09-06T03:10:26.566Z,11.80
2022-09-06T03:12:53.443Z,11.80
2022-09-06T03:15:20.592Z,12.00
2022-09-06T03:17:47.279Z,11.70
2022-09-06T03:20:14.301Z,11.70
2022-09-06T03:22:41.518Z,11.70
2022-09-06T03:25:09.820Z,11.60
2022-09-06T03:27:37.135Z,11.70
2022-09-06T03:30:05.812Z,11.60
2022-09-06T03:32:32.545Z,11.60
2022-09-06T03:34:59.772Z,11.60
2022-09-06T03:37:26.932Z,11.80
2022-09-06T03:39:53.861Z,11.50
2022-09-06T03:42:20.692Z,11.50
2022-09-06T03:44:47.773Z,11.50
2022-09-06T03:47:18.779Z,13.10
2022-09-06T03:49:46.830Z,11.50
2022-09-06T03:52:13.951Z,11.40
2022-09-06T03:54:40.815Z,11.40
2022-09-06T03:57:07.533Z,12.50
2022-09-06T03:59:34.529Z,11.40
2022-09-06T04:02:01.673Z,11.30
2022-09-06T04:04:28.529Z,11.30
2022-09-06T04:06:55.282Z,11.30
2022-09-06T04:09:22.038Z,12.00
2022-09-06T04:11:48.729Z,11.30
2022-09-06T04:14:15.552Z,12.00
2022-09-06T04:16:42.352Z,11.30
2022-09-06T04:19:09.140Z,11.20
2022-09-06T04:21:35.939Z,11.20
2022-09-06T04:24:02.915Z,11.20
2022-09-06T04:26:29.630Z,11.20
2022-09-06T04:28:56.410Z,11.20
2022-09-06T04:31:23.163Z,11.20
2022-09-06T04:33:49.880Z,11.10
2022-09-06T04:36:16.703Z,12.20
2022-09-06T04:38:44.953Z,11.00
2022-09-06T04:41:13.978Z,11.00
2022-09-06T04:43:40.736Z,11.00
2022-09-06T04:46:19.330Z,11.10
2022-09-06T04:48:47.142Z,11.00
2022-09-06T04:51:13.930Z,11.00
2022-09-06T04:53:40.660Z,11.00
2022-09-06T04:56:07.467Z,11.00
2022-09-06T04:58:34.389Z,11.80
2022-09-06T05:01:01.230Z,11.00
2022-09-06T05:03:28.111Z,12.10
2022-09-06T05:06:07.726Z,11.00
2022-09-06T05:08:37.764Z,11.10
2022-09-06T05:11:04.883Z,11.10
2022-09-06T05:13:31.816Z,11.10
2022-09-06T05:16:06.848Z,12.10
2022-09-06T05:18:34.147Z,11.10
2022-09-06T05:21:01.329Z,11.10
2022-09-06T05:23:28.860Z,11.10
2022-09-06T05:25:55.626Z,11.20
2022-09-06T05:28:23.237Z,11.20
2022-09-06T05:30:50.277Z,11.30
2022-09-06T05:33:22.388Z,11.30
2022-09-06T05:35:49.801Z,11.30
2022-09-06T05:38:16.811Z,11.40
2022-09-06T05:40:44.047Z,11.40
2022-09-06T05:43:10.806Z,11.40
2022-09-06T05:45:37.668Z,11.50
2022-09-06T05:48:04.472Z,11.60
2022-09-06T05:50:31.386Z,11.60
2022-09-06T05:52:58.125Z,11.60
2022-09-06T05:55:24.819Z,11.70
2022-09-06T05:57:51.544Z,11.70
2022-09-06T06:00:18.392Z,11.80
2022-09-06T06:02:48.330Z,11.80
2022-09-06T06:05:15.900Z,11.90
2022-09-06T06:07:42.731Z,12.00
2022-09-06T06:10:09.931Z,12.20
2022-09-06T06:12:36.693Z,12.10
2022-09-06T06:15:05.757Z,13.40
2022-09-06T06:17:32.893Z,12.20
2022-09-06T06:19:59.563Z,12.30
2022-09-06T06:22:26.300Z,12.40
2022-09-06T06:24:53.098Z,12.50
2022-09-06T06:27:19.965Z,12.60
2022-09-06T06:29:46.695Z,12.60
2022-09-06T06:32:13.420Z,13.20
2022-09-06T06:34:40.184Z,12.80
2022-09-06T06:37:07.002Z,12.90
2022-09-06T06:39:33.932Z,13.00
2022-09-06T06:42:00.815Z,14.50
2022-09-06T06:44:28.275Z,13.20
2022-09-06T06:46:57.930Z,13.30
2022-09-06T06:49:25.299Z,13.50
2022-09-06T06:51:52.121Z,13.60
2022-09-06T06:54:21.262Z,13.70
2022-09-06T06:56:47.970Z,13.80
2022-09-06T06:59:14.761Z,13.90
2022-09-06T07:01:41.694Z,14.00
2022-09-06T07:04:10.538Z,14.40
2022-09-06T07:12:21.607Z,14.40
2022-09-06T07:14:48.350Z,14.50
2022-09-06T07:17:15.067Z,14.60
2022-09-06T07:22:28.481Z,14.80
2022-09-06T07:24:55.208Z,15.10
2022-09-06T07:30:09.702Z,15.10
2022-09-06T07:32:36.405Z,15.30
2022-09-06T07:35:03.175Z,15.30
2022-09-06T07:37:29.881Z,15.40
2022-09-06T07:39:56.643Z,15.50
2022-09-06T07:42:23.439Z,15.60
2022-09-06T07:44:50.177Z,15.70
2022-09-06T07:53:08.946Z,16.10
2022-09-06T07:55:38.780Z,16.20
2022-09-06T07:58:05.527Z,16.30
2022-09-06T08:00:32.322Z,16.40
2022-09-06T08:02:59.294Z,16.40
2022-09-06T08:10:59.384Z,16.70
2022-09-06T08:13:26.148Z,16.80
2022-09-06T08:16:03.849Z,17.00
2022-09-06T08:18:30.636Z,17.00
2022-09-06T08:21:06.328Z,17.20
2022-09-06T08:23:35.440Z,17.30
2022-09-06T08:26:02.255Z,17.80
2022-09-06T08:28:29.070Z,17.40
2022-09-06T08:30:56.170Z,17.50
2022-09-06T08:33:25.578Z,17.60
2022-09-06T08:36:00.841Z,17.70
2022-09-06T08:38:28.775Z,17.80
2022-09-06T08:41:07.573Z,17.90
2022-09-06T08:43:35.848Z,18.10
2022-09-06T08:46:04.401Z,18.20
2022-09-06T08:48:34.274Z,18.40
2022-09-06T08:51:22.978Z,18.50
2022-09-06T08:53:49.690Z,18.60
2022-09-06T08:56:31.997Z,18.80
2022-09-06T08:59:13.542Z,18.80
2022-09-06T09:02:04.902Z,18.90
2022-09-06T09:04:33.331Z,18.90
2022-09-06T09:07:23.789Z,18.90
2022-09-06T09:09:52.708Z,18.90
2022-09-06T09:12:23.167Z,19.80
2022-09-06T09:14:57.251Z,19.10
2022-09-06T09:17:29.133Z,19.20
2022-09-06T09:19:56.729Z,19.20
2022-09-06T09:22:25.260Z,19.30
2022-09-06T09:24:53.076Z,19.20
2022-09-06T09:27:26.334Z,19.40
2022-09-06T09:32:45.984Z,19.50
2022-09-06T09:35:23.496Z,19.50
2022-09-06T09:38:07.726Z,19.60
2022-09-06T09:40:42.105Z,20.60
2022-09-06T09:43:15.341Z,20.30
2022-09-06T09:45:43.352Z,19.90
2022-09-06T09:48:27.283Z,19.90
2022-09-06T09:50:56.060Z,20.10
2022-09-06T09:53:24.487Z,20.20
2022-09-06T09:55:59.004Z,20.20
2022-09-06T09:58:34.216Z,20.30
2022-09-06T10:01:20.525Z,21.20
2022-09-06T10:09:33.596Z,20.80
2022-09-06T10:12:00.508Z,21.20
2022-09-06T10:14:33.168Z,20.90
2022-09-06T10:17:00.867Z,20.90
2022-09-06T10:19:39.578Z,21.00
2022-09-06T10:22:20.112Z,21.10
2022-09-06T10:25:10.220Z,21.10
2022-09-06T10:28:01.704Z,21.10
2022-09-06T10:30:54.094Z,21.10
2022-09-06T10:33:37.719Z,21.20
2022-09-06T10:36:04.902Z,21.10
2022-09-06T10:38:54.458Z,21.20
2022-09-06T10:41:45.615Z,21.20
2022-09-06T10:44:21.295Z,21.30
2022-09-06T10:46:51.320Z,21.30
2022-09-06T10:49:19.912Z,21.40
2022-09-06T10:51:53.107Z,21.40
2022-09-06T10:54:25.923Z,21.50
2022-09-06T11:00:05.297Z,21.60
2022-09-06T11:02:40.115Z,21.60
2022-09-06T11:10:55.417Z,21.60
2022-09-06T11:13:27.776Z,21.50
2022-09-06T11:16:04.565Z,21.50
2022-09-06T11:18:36.695Z,21.50
2022-09-06T11:21:09.144Z,21.50
2022-09-06T11:24:11.288Z,21.50
2022-09-06T11:26:44.819Z,21.50
2022-09-06T11:29:17.411Z,21.50
2022-09-06T11:32:28.486Z,21.50
2022-09-06T11:34:58.104Z,21.50
2022-09-06T11:37:28.286Z,21.50
2022-09-06T11:40:32.116Z,21.50
2022-09-06T11:42:59.519Z,21.50
2022-09-06T11:45:55.531Z,21.50
2022-09-06T11:48:26.396Z,22.10
2022-09-06T11:51:01.273Z,21.50
2022-09-06T11:53:31.045Z,21.50
2022-09-06T11:56:00.916Z,21.50
2022-09-06T11:58:51.597Z,21.40
2022-09-06T12:01:18.901Z,21.50
2022-09-06T12:04:05.203Z,21.60
2022-09-06T12:07:03.691Z,21.60
2022-09-06T12:09:46.092Z,21.70
2022-09-06T12:12:38.419Z,21.70
2022-09-06T12:15:31.971Z,21.70
2022-09-06T12:18:00.274Z,21.70
2022-09-06T12:20:48.730Z,21.70
2022-09-06T12:23:34.299Z,21.60
2022-09-06T12:26:09.240Z,21.60
2022-09-06T12:28:49.733Z,21.60
2022-09-06T12:31:24.285Z,21.60
2022-09-06T12:33:52.434Z,21.60
2022-09-06T12:36:30.988Z,21.50
2022-09-06T12:39:09.938Z,21.50
2022-09-06T12:41:43.282Z,21.50
2022-09-06T12:44:11.601Z,21.50
2022-09-06T12:46:39.942Z,21.50
2022-09-06T12:49:11.840Z,21.50
2022-09-06T12:51:40.530Z,21.50
2022-09-06T12:54:23.163Z,21.60
2022-09-06T12:56:51.333Z,21.60
2022-09-06T12:59:25.057Z,21.60
2022-09-06T13:02:00.843Z,21.50
2022-09-06T13:04:37.035Z,21.50
2022-09-06T13:07:05.353Z,21.50
2022-09-06T13:09:33.295Z,21.50
2022-09-06T13:12:08.529Z,21.50
2022-09-06T13:14:35.663Z,21.50
2022-09-06T13:17:03.440Z,21.50
2022-09-06T13:19:38.599Z,21.60
2022-09-06T13:22:11.191Z,21.50
2022-09-06T13:24:47.018Z,21.50
2022-09-06T13:27:30.753Z,21.50
2022-09-06T13:29:59.941Z,21.50
2022-09-06T13:32:27.970Z,21.50
2022-09-06T13:34:57.866Z,21.50
2022-09-06T13:37:29.672Z,21.50
2022-09-06T13:39:57.742Z,21.50
2022-09-06T13:42:30.271Z,21.50
2022-09-06T13:45:01.807Z,21.50
2022-09-06T13:47:29.870Z,21.80
2022-09-06T13:49:56.676Z,22.00
2022-09-06T13:52:23.621Z,21.40
2022-09-06T13:54:50.509Z,21.40
2022-09-06T13:57:22.231Z,21.40
2022-09-06T13:59:50.912Z,21.40
2022-09-06T14:02:19.886Z,21.40
2022-09-06T14:04:46.845Z,21.50
2022-09-06T14:07:13.658Z,21.50
2022-09-06T14:09:40.371Z,21.50
2022-09-06T14:12:07.219Z,21.50
2022-09-06T14:14:34.452Z,21.50
2022-09-06T14:17:01.608Z,21.50
2022-09-06T14:19:28.908Z,21.50
2022-09-06T14:21:55.863Z,21.60
2022-09-06T14:24:22.899Z,21.50
2022-09-06T14:26:49.736Z,21.60
2022-09-06T14:29:16.574Z,21.50
2022-09-06T14:31:43.356Z,21.60
2022-09-06T14:34:10.158Z,22.50
2022-09-06T14:36:37.027Z,21.60
2022-09-06T14:39:04.349Z,21.50
2022-09-06T14:41:31.449Z,21.50
2022-09-06T14:43:58.998Z,21.50
2022-09-06T14:46:28.138Z,21.50
2022-09-06T14:49:03.853Z,21.40
2022-09-06T14:51:30.947Z,21.50
2022-09-06T14:54:02.616Z,21.40
2022-09-06T14:56:29.988Z,21.50
2022-09-06T14:58:57.906Z,21.50
2022-09-06T15:01:27.323Z,21.40
2022-09-06T15:03:57.688Z,21.40
2022-09-06T15:06:26.168Z,21.50
2022-09-06T15:08:58.398Z,21.50
2022-09-06T15:11:34.743Z,21.40
2022-09-06T15:14:08.539Z,21.40
2022-09-06T15:16:36.238Z,21.40
2022-09-06T15:19:03.601Z,21.30
2022-09-06T15:21:31.639Z,21.30
2022-09-06T15:24:00.169Z,21.90
2022-09-06T15:26:28.101Z,21.30
2022-09-06T15:28:54.959Z,21.30
2022-09-06T15:31:21.875Z,21.20
2022-09-06T15:33:50.233Z,21.20
2022-09-06T15:36:17.187Z,21.10
2022-09-06T15:38:47.983Z,21.10
2022-09-06T15:41:18.724Z,21.00
2022-09-06T15:43:47.737Z,21.00
2022-09-06T15:46:16.652Z,21.00
2022-09-06T15:48:48.340Z,20.90
2022-09-06T15:51:17.906Z,20.90
2022-09-06T15:53:44.959Z,20.80
2022-09-06T15:56:14.573Z,20.80
2022-09-06T15:58:41.459Z,20.80
2022-09-06T16:01:13.817Z,20.70
2022-09-06T16:03:43.067Z,20.70
2022-09-06T16:06:28.402Z,21.40
2022-09-06T16:09:10.424Z,20.60
2022-09-06T16:11:37.886Z,20.60
2022-09-06T16:14:06.769Z,20.50
2022-09-06T16:16:35.272Z,20.50
2022-09-06T16:19:02.545Z,20.50
2022-09-06T16:21:32.393Z,20.40
2022-09-06T16:24:04.524Z,20.40
2022-09-06T16:26:34.351Z,20.30
2022-09-06T16:29:02.011Z,20.30
2022-09-06T16:31:29.731Z,20.30
2022-09-06T16:33:57.987Z,20.20
2022-09-06T16:36:25.610Z,20.20
2022-09-06T16:38:52.938Z,20.20
2022-09-06T16:41:21.977Z,20.10
2022-09-06T16:43:55.414Z,20.20
2022-09-06T16:46:25.669Z,20.00
2022-09-06T16:48:54.982Z,20.00
2022-09-06T16:51:23.154Z,19.90
2022-09-06T16:53:50.516Z,19.90
2022-09-06T16:56:20.079Z,19.80
2022-09-06T16:59:00.288Z,20.30
2022-09-06T17:01:29.241Z,19.80
2022-09-06T17:03:57.419Z,19.70
2022-09-06T17:06:24.957Z,19.70
2022-09-06T17:08:52.154Z,19.70
2022-09-06T17:11:21.979Z,19.60
2022-09-06T17:13:51.259Z,19.50
2022-09-06T17:16:40.531Z,19.50
2022-09-06T17:19:09.160Z,19.40
2022-09-06T17:21:37.131Z,19.40
2022-09-06T17:24:05.459Z,19.40
2022-09-06T17:26:34.759Z,19.30
2022-09-06T17:29:01.703Z,19.20
2022-09-06T17:31:28.991Z,19.20
2022-09-06T17:33:56.111Z,19.10
2022-09-06T17:36:30.598Z,19.10
2022-09-06T17:39:02.115Z,19.80
2022-09-06T17:41:35.463Z,19.00
2022-09-06T17:44:03.551Z,18.90
2022-09-06T17:46:30.559Z,18.90
2022-09-06T17:48:57.892Z,18.80
2022-09-06T17:51:25.894Z,18.80
2022-09-06T17:53:53.183Z,18.70
2022-09-06T17:56:20.794Z,18.60
2022-09-06T17:58:56.619Z,18.60
2022-09-06T18:01:25.546Z,18.60
2022-09-06T18:03:52.946Z,18.50
2022-09-06T18:06:22.839Z,18.40
2022-09-06T18:08:52.822Z,18.40
2022-09-06T18:11:22.481Z,18.40
2022-09-06T18:13:56.032Z,18.30
2022-09-06T18:16:23.188Z,18.30
2022-09-06T18:18:52.526Z,18.20
2022-09-06T18:21:20.286Z,18.20
2022-09-06T18:23:47.918Z,18.10
2022-09-06T18:26:15.090Z,18.10
2022-09-06T18:28:42.016Z,18.10
2022-09-06T18:31:11.866Z,18.10
2022-09-06T18:33:39.769Z,18.10
2022-09-06T18:36:07.538Z,18.00
2022-09-06T18:38:39.902Z,18.00
2022-09-06T18:41:09.505Z,18.00
2022-09-06T18:43:40.557Z,18.00
2022-09-06T18:46:12.857Z,18.00
2022-09-06T18:48:40.803Z,17.90
2022-09-06T18:51:11.530Z,17.90
2022-09-06T18:53:43.988Z,17.90
2022-09-06T18:56:12.994Z,17.80
2022-09-06T18:58:40.533Z,17.80
2022-09-06T19:01:10.123Z,17.80
2022-09-06T19:03:38.033Z,17.70
2022-09-06T19:06:12.428Z,17.70
2022-09-06T19:08:40.111Z,17.60
2022-09-06T19:11:12.000Z,17.60
2022-09-06T19:13:41.542Z,17.50
2022-09-06T19:16:10.199Z,17.50
2022-09-06T19:18:38.171Z,17.40
2022-09-06T19:21:10.003Z,17.40
2022-09-06T19:23:39.532Z,18.20
2022-09-06T19:26:17.972Z,17.20
2022-09-06T19:28:53.242Z,17.20
2022-09-06T19:31:20.553Z,17.10
2022-09-06T19:33:51.432Z,17.10
2022-09-06T19:36:19.553Z,17.00
2022-09-06T19:39:04.417Z,17.00
2022-09-06T19:41:35.707Z,17.00
2022-09-06T19:44:05.824Z,16.90
2022-09-06T19:46:36.520Z,16.80
2022-09-06T19:49:11.097Z,16.80
2022-09-06T19:51:38.517Z,16.80
2022-09-06T19:54:05.985Z,16.80
2022-09-06T19:56:35.167Z,16.70
2022-09-06T19:59:07.517Z,16.70
2022-09-06T20:01:35.944Z,16.70
2022-09-06T20:04:07.959Z,17.20
2022-09-06T20:06:36.007Z,16.60
2022-09-06T20:09:12.269Z,17.30
2022-09-06T20:11:40.606Z,16.50
2022-09-06T20:14:09.125Z,16.50
2022-09-06T20:17:02.921Z,16.50
2022-09-06T20:19:42.978Z,16.40
2022-09-06T20:22:11.412Z,16.30
2022-09-06T20:24:38.143Z,16.80
2022-09-06T20:27:04.897Z,16.30
2022-09-06T20:29:31.697Z,16.30
2022-09-06T20:31:58.582Z,16.20
2022-09-06T20:34:25.362Z,16.30
2022-09-06T20:36:52.131Z,16.20
2022-09-06T20:39:18.908Z,16.60
2022-09-06T20:41:45.709Z,16.60
2022-09-06T20:44:12.500Z,16.20
2022-09-06T20:46:39.773Z,16.10
2022-09-06T20:49:07.750Z,16.10
2022-09-06T20:51:36.273Z,16.10
2022-09-06T20:54:04.956Z,16.10
2022-09-06T20:56:34.648Z,16.00
2022-09-06T20:59:04.817Z,15.90
2022-09-06T21:01:35.263Z,15.90
2022-09-06T21:04:04.476Z,15.90
2022-09-06T21:06:34.612Z,15.90
2022-09-06T21:09:03.169Z,16.80
2022-09-06T21:11:29.994Z,15.90
2022-09-06T21:13:57.375Z,16.50
2022-09-06T21:16:27.543Z,15.90
2022-09-06T21:18:56.420Z,15.90
2022-09-06T21:21:25.350Z,15.90
2022-09-06T21:23:52.595Z,16.80
2022-09-06T21:26:19.623Z,15.90
2022-09-06T21:28:48.027Z,15.90
2022-09-06T21:31:19.592Z,15.90
2022-09-06T21:33:52.668Z,15.80
2022-09-06T21:36:21.918Z,16.50
2022-09-06T21:38:50.507Z,15.80
2022-09-06T21:41:19.050Z,15.80
2022-09-06T21:43:46.425Z,15.70
2022-09-06T21:46:16.553Z,15.70
2022-09-06T21:48:45.729Z,15.60
2022-09-06T21:51:15.189Z,15.60
2022-09-06T21:53:48.053Z,15.50
2022-09-06T21:56:16.460Z,15.50
2022-09-06T21:58:44.655Z,15.70
2022-09-06T22:01:11.401Z,15.40
2022-09-06T22:03:40.375Z,15.30
2022-09-06T22:06:15.276Z,15.30
2022-09-06T22:08:43.292Z,15.20
2022-09-06T22:11:27.839Z,15.20
2022-09-06T22:13:57.731Z,15.20
2022-09-06T22:16:24.864Z,15.20
2022-09-06T22:18:51.810Z,15.40
2022-09-06T22:21:21.131Z,15.20
2022-09-06T22:23:59.344Z,15.10
2022-09-06T22:26:28.305Z,15.00
2022-09-06T22:28:57.072Z,15.00
2022-09-06T22:31:25.292Z,15.00
2022-09-06T22:33:52.346Z,14.90
2022-09-06T22:36:19.269Z,14.90
2022-09-06T22:38:46.035Z,15.70
2022-09-06T22:41:12.738Z,14.80
2022-09-06T22:43:39.440Z,14.80
2022-09-06T22:46:10.629Z,14.80
2022-09-06T22:48:37.859Z,14.70
2022-09-06T22:51:06.262Z,14.80
2022-09-06T22:53:34.991Z,14.60
2022-09-06T22:56:02.481Z,14.60
2022-09-06T22:58:29.205Z,14.60
2022-09-06T23:00:56.606Z,14.60
2022-09-06T23:03:23.668Z,14.60
2022-09-06T23:05:50.676Z,14.60
2022-09-06T23:08:17.565Z,14.50
2022-09-06T23:10:44.485Z,14.40
2022-09-06T23:13:11.684Z,14.40
2022-09-06T23:15:41.013Z,14.40
2022-09-06T23:18:08.549Z,14.40
2022-09-06T23:20:37.196Z,14.40
2022-09-06T23:23:07.750Z,14.40
2022-09-06T23:25:40.311Z,14.30
2022-09-06T23:28:07.337Z,14.30
2022-09-06T23:30:37.586Z,14.30
2022-09-06T23:33:04.727Z,14.30
2022-09-06T23:35:31.530Z,14.20
2022-09-06T23:37:58.619Z,14.20
2022-09-06T23:40:25.346Z,14.20
2022-09-06T23:42:52.014Z,14.20
2022-09-06T23:45:18.717Z,14.20
2022-09-06T23:47:45.451Z,14.10
2022-09-06T23:50:12.210Z,14.10
2022-09-06T23:52:38.911Z,14.10
2022-09-06T23:55:06.238Z,14.10
2022-09-06T23:57:33.017Z,14.00
2022-09-06T23:59:59.716Z,14.00
